Time;durP1;ratioP1;P1;durP2;ratioP2;P2;SDS_P1;SDS_P2;PMS_P1;PMS_P2;Temp;Humidity;BMP_temperature;BMP_pressure;BME280_temperature;BME280_humidity;BME280_pressure;Samples;Min_cycle;Max_cycle;Signal;HPM_P1;HPM_P2
2023/08/01 00:02:13;;;;;;;8.27;4.40;;;;;;;;;;6249523;22;20073;-82
2023/08/01 00:04:39;;;;;;;18.60;4.30;;;;;;;;;;6277046;22;20004;-82
2023/08/01 00:07:04;;;;;;;11.05;4.80;;;;;;;;;;6252692;22;20004;-82
2023/08/01 00:09:30;;;;;;;14.10;4.85;;;;;;;;;;6250265;22;20614;-82
2023/08/01 00:11:55;;;;;;;13.25;4.60;;;;;;;;;;6249827;22;20058;-82
2023/08/01 00:14:24;;;;;;;8.25;4.30;;;;;;;;;;6277100;22;20000;-82
2023/08/01 00:16:50;;;;;;;13.15;4.32;;;;;;;;;;6249606;22;20000;-81
2023/08/01 00:19:15;;;;;;;9.20;4.15;;;;;;;;;;6276663;22;20008;-81
2023/08/01 00:21:40;;;;;;;8.63;3.78;;;;;;;;;;6223709;22;20392;-82
2023/08/01 00:24:07;;;;;;;11.30;4.13;;;;;;;;;;6249752;22;20003;-82
2023/08/01 00:26:33;;;;;;;22.02;4.70;;;;;;;;;;6249985;22;20437;-80
2023/08/01 00:28:59;;;;;;;8.18;4.45;;;;;;;;;;6232230;22;20024;-80
2023/08/01 00:31:24;;;;;;;10.45;4.20;;;;;;;;;;6283881;22;20000;-81
2023/08/01 00:33:49;;;;;;;12.77;4.70;;;;;;;;;;6276673;22;20599;-81
2023/08/01 00:36:15;;;;;;;12.00;4.53;;;;;;;;;;6275994;22;20006;-80
2023/08/01 00:38:42;;;;;;;12.18;4.80;;;;;;;;;;6276035;22;19999;-81
2023/08/01 00:41:11;;;;;;;10.88;4.30;;;;;;;;;;6276506;22;20030;-81
2023/08/01 00:43:36;;;;;;;11.30;3.97;;;;;;;;;;6249809;22;20000;-81
2023/08/01 00:46:03;;;;;;;8.13;4.20;;;;;;;;;;6224132;22;20011;-82
2023/08/01 00:48:29;;;;;;;18.00;4.50;;;;;;;;;;6224381;22;20415;-81
2023/08/01 00:50:56;;;;;;;7.90;4.13;;;;;;;;;;6223801;22;20015;-82
2023/08/01 00:53:22;;;;;;;14.43;4.10;;;;;;;;;;6230957;22;20031;-83
2023/08/01 00:55:47;;;;;;;9.23;4.05;;;;;;;;;;6224375;22;20008;-81
2023/08/01 00:58:13;;;;;;;13.27;4.22;;;;;;;;;;6249570;22;20327;-82
2023/08/01 01:00:39;;;;;;;10.68;4.43;;;;;;;;;;6275876;22;20068;-82
2023/08/01 01:03:04;;;;;;;13.02;4.10;;;;;;;;;;6276285;22;20082;-83
2023/08/01 01:05:36;;;;;;;10.55;4.30;;;;;;;;;;6248984;22;20371;-82
2023/08/01 01:08:02;;;;;;;10.75;4.30;;;;;;;;;;6223888;22;20053;-82
2023/08/01 01:10:28;;;;;;;9.20;4.60;;;;;;;;;;6249366;22;20449;-82
2023/08/01 01:12:55;;;;;;;20.10;6.38;;;;;;;;;;6249099;22;20004;-81
2023/08/01 01:15:20;;;;;;;27.95;9.77;;;;;;;;;;6282685;22;20004;-82
2023/08/01 01:17:46;;;;;;;15.50;5.70;;;;;;;;;;6229001;22;19999;-83
2023/08/01 01:20:11;;;;;;;18.20;5.55;;;;;;;;;;6276016;22;20003;-81
2023/08/01 01:22:37;;;;;;;11.48;5.30;;;;;;;;;;6248775;22;20061;-82
2023/08/01 01:25:03;;;;;;;10.10;4.78;;;;;;;;;;6224249;22;20000;-82
2023/08/01 01:27:28;;;;;;;11.70;4.55;;;;;;;;;;6223556;22;20003;-81
2023/08/01 01:29:54;;;;;;;13.93;6.30;;;;;;;;;;6275929;22;20003;-82
2023/08/01 01:32:20;;;;;;;16.05;6.15;;;;;;;;;;6248975;22;20437;-82
2023/08/01 01:34:45;;;;;;;15.93;6.85;;;;;;;;;;6223312;22;20061;-82
2023/08/01 01:37:12;;;;;;;25.17;7.45;;;;;;;;;;6248591;22;20061;-81
2023/08/01 01:39:37;;;;;;;8.90;5.30;;;;;;;;;;6258542;22;20442;-82
2023/08/01 01:42:03;;;;;;;10.73;4.57;;;;;;;;;;6276167;22;20087;-81
2023/08/01 01:44:28;;;;;;;14.82;4.47;;;;;;;;;;6275521;22;20000;-82
2023/08/01 01:46:54;;;;;;;11.52;4.90;;;;;;;;;;6275496;22;20112;-82
2023/08/01 01:49:19;;;;;;;24.98;5.32;;;;;;;;;;6275189;22;20003;-82
2023/08/01 01:51:44;;;;;;;13.75;5.30;;;;;;;;;;6248396;22;20007;-81
2023/08/01 01:54:10;;;;;;;11.18;5.10;;;;;;;;;;6248299;22;20008;-80
2023/08/01 01:56:35;;;;;;;15.52;5.03;;;;;;;;;;6223429;22;20082;-82
2023/08/01 01:59:01;;;;;;;19.17;5.38;;;;;;;;;;6248564;22;20007;-81
2023/08/01 02:01:26;;;;;;;15.07;5.85;;;;;;;;;;6252238;22;20502;-81
2023/08/01 02:03:52;;;;;;;16.25;5.65;;;;;;;;;;6252783;22;20002;-83
2023/08/01 02:06:17;;;;;;;11.38;5.43;;;;;;;;;;6223446;22;20022;-82
2023/08/01 02:08:43;;;;;;;14.48;5.20;;;;;;;;;;6276060;22;20061;-82
2023/08/01 02:11:08;;;;;;;9.93;4.85;;;;;;;;;;6248439;22;20418;-82
2023/08/01 02:13:34;;;;;;;11.85;5.30;;;;;;;;;;6248461;22;20008;-81
2023/08/01 02:15:59;;;;;;;14.50;5.90;;;;;;;;;;6223555;22;20091;-81
2023/08/01 02:18:24;;;;;;;15.00;6.30;;;;;;;;;;6274979;22;20133;-81
2023/08/01 02:20:50;;;;;;;18.30;6.25;;;;;;;;;;6248224;22;20042;-81
2023/08/01 02:23:15;;;;;;;18.52;7.03;;;;;;;;;;6248483;22;20031;-81
2023/08/01 02:25:41;;;;;;;26.45;9.60;;;;;;;;;;6259190;22;20004;-82
2023/08/01 02:28:07;;;;;;;23.38;8.85;;;;;;;;;;6275568;22;20000;-81
2023/08/01 02:30:33;;;;;;;26.10;9.82;;;;;;;;;;6222914;22;20089;-81
2023/08/01 02:32:58;;;;;;;26.75;9.30;;;;;;;;;;6223314;22;20007;-81
2023/08/01 02:35:24;;;;;;;27.45;9.55;;;;;;;;;;6275304;22;20014;-82
2023/08/01 02:37:49;;;;;;;26.73;9.48;;;;;;;;;;6275071;22;20090;-81
2023/08/01 02:40:15;;;;;;;27.48;10.18;;;;;;;;;;6248514;22;20004;-81
2023/08/01 02:42:40;;;;;;;25.65;8.88;;;;;;;;;;6275365;22;19996;-82
2023/08/01 02:45:06;;;;;;;20.77;8.82;;;;;;;;;;6247639;22;20397;-82
2023/08/01 02:47:31;;;;;;;29.35;9.05;;;;;;;;;;6280967;22;20000;-81
2023/08/01 02:49:57;;;;;;;22.70;9.10;;;;;;;;;;6288981;22;20015;-81
2023/08/01 02:52:22;;;;;;;23.35;8.80;;;;;;;;;;6275435;22;20338;-81
2023/08/01 02:54:47;;;;;;;25.23;8.40;;;;;;;;;;6275119;22;20327;-82
2023/08/01 02:57:13;;;;;;;25.60;8.25;;;;;;;;;;6275687;22;20000;-81
2023/08/01 02:59:38;;;;;;;18.00;7.45;;;;;;;;;;6247976;22;20457;-81
2023/08/01 03:02:04;;;;;;;25.25;7.63;;;;;;;;;;6275001;22;20431;-80
2023/08/01 03:04:29;;;;;;;19.40;7.13;;;;;;;;;;6275374;22;20411;-81
2023/08/01 03:06:55;;;;;;;19.17;7.45;;;;;;;;;;6197977;22;19999;-81
2023/08/01 03:09:20;;;;;;;21.77;8.35;;;;;;;;;;6275372;22;20004;-81
2023/08/01 03:11:45;;;;;;;16.70;7.28;;;;;;;;;;6259370;22;20064;-82
2023/08/01 03:14:11;;;;;;;20.00;6.63;;;;;;;;;;6249707;22;20027;-80
2023/08/01 03:16:37;;;;;;;14.95;5.90;;;;;;;;;;6275275;22;20320;-83
2023/08/01 03:19:04;;;;;;;15.70;6.47;;;;;;;;;;6223210;22;20004;-81
2023/08/01 03:21:33;;;;;;;15.23;6.20;;;;;;;;;;6248763;22;20083;-82
2023/08/01 03:23:58;;;;;;;13.77;5.75;;;;;;;;;;6223210;22;20073;-82
2023/08/01 03:26:24;;;;;;;10.52;5.90;;;;;;;;;;6222906;22;20415;-81
2023/08/01 03:28:49;;;;;;;14.15;6.70;;;;;;;;;;6223014;22;20004;-82
2023/08/01 03:31:15;;;;;;;12.60;5.28;;;;;;;;;;6247816;22;20061;-80
2023/08/01 03:33:40;;;;;;;20.38;5.55;;;;;;;;;;6279131;22;20095;-80
2023/08/01 03:36:06;;;;;;;13.65;6.20;;;;;;;;;;6285422;22;20043;-80
2023/08/01 03:38:31;;;;;;;18.92;5.88;;;;;;;;;;6251208;22;20000;-82
2023/08/01 03:40:57;;;;;;;15.43;6.25;;;;;;;;;;6256210;22;20011;-81
2023/08/01 03:43:23;;;;;;;16.23;5.53;;;;;;;;;;6204092;22;20011;-81
2023/08/01 03:45:49;;;;;;;16.13;5.72;;;;;;;;;;6277023;22;20419;-81
2023/08/01 03:48:15;;;;;;;12.05;6.13;;;;;;;;;;6249287;22;20023;-81
2023/08/01 03:50:40;;;;;;;12.80;5.88;;;;;;;;;;6248736;22;20368;-82
2023/08/01 03:53:07;;;;;;;20.58;6.15;;;;;;;;;;6249582;22;20015;-81
2023/08/01 03:55:32;;;;;;;17.70;6.50;;;;;;;;;;6276894;22;20031;-81
2023/08/01 03:57:58;;;;;;;15.82;6.28;;;;;;;;;;6262798;22;20011;-80
2023/08/01 04:00:23;;;;;;;33.70;7.03;;;;;;;;;;6252542;22;19996;-82
2023/08/01 04:02:49;;;;;;;17.48;6.47;;;;;;;;;;6280021;22;20011;-82
2023/08/01 04:05:14;;;;;;;16.63;6.65;;;;;;;;;;6252859;22;20025;-82
2023/08/01 04:07:40;;;;;;;19.02;6.63;;;;;;;;;;6228589;22;20004;-81
2023/08/01 04:10:06;;;;;;;13.05;6.13;;;;;;;;;;6258145;22;20007;-81
2023/08/01 04:12:32;;;;;;;15.82;6.50;;;;;;;;;;6228711;22;20007;-82
2023/08/01 04:14:58;;;;;;;13.55;6.22;;;;;;;;;;6304568;22;20000;-80
2023/08/01 04:17:23;;;;;;;16.25;7.10;;;;;;;;;;6249193;22;20411;-82
2023/08/01 04:19:48;;;;;;;14.88;6.93;;;;;;;;;;6241645;22;20011;-81
2023/08/01 04:22:14;;;;;;;19.67;6.78;;;;;;;;;;6256153;22;20035;-81
2023/08/01 04:24:39;;;;;;;14.85;6.60;;;;;;;;;;6250099;22;20003;-81
2023/08/01 04:27:05;;;;;;;16.00;6.28;;;;;;;;;;6249393;22;20003;-82
2023/08/01 04:29:30;;;;;;;13.23;6.15;;;;;;;;;;6249494;22;20004;-81
2023/08/01 04:31:56;;;;;;;17.83;5.90;;;;;;;;;;6223942;22;20007;-82
2023/08/01 04:34:22;;;;;;;15.30;6.55;;;;;;;;;;6276469;22;20022;-81
2023/08/01 04:36:47;;;;;;;15.15;6.63;;;;;;;;;;6224063;22;20480;-82
2023/08/01 04:39:12;;;;;;;15.70;6.80;;;;;;;;;;6249209;22;20035;-81
2023/08/01 04:41:38;;;;;;;17.08;7.10;;;;;;;;;;6224143;22;20049;-81
2023/08/01 04:44:03;;;;;;;22.35;7.60;;;;;;;;;;6290556;22;19996;-81
2023/08/01 04:46:29;;;;;;;21.75;7.10;;;;;;;;;;6200240;22;20329;-82
2023/08/01 04:48:54;;;;;;;17.02;6.40;;;;;;;;;;6276663;22;20094;-83
2023/08/01 04:51:20;;;;;;;19.45;7.63;;;;;;;;;;6276426;22;20445;-82
2023/08/01 04:53:45;;;;;;;22.70;6.97;;;;;;;;;;6276425;22;20004;-81
2023/08/01 04:56:11;;;;;;;19.33;6.82;;;;;;;;;;6223912;22;20004;-81
2023/08/01 04:58:37;;;;;;;16.42;6.88;;;;;;;;;;6249103;22;20000;-82
2023/08/01 05:01:03;;;;;;;20.45;7.68;;;;;;;;;;6275985;22;20003;-81
2023/08/01 05:03:28;;;;;;;16.95;7.57;;;;;;;;;;6249492;22;20061;-81
2023/08/01 05:05:53;;;;;;;23.08;7.53;;;;;;;;;;6251685;22;20004;-80
2023/08/01 05:08:19;;;;;;;18.15;7.75;;;;;;;;;;6283363;22;19996;-81
2023/08/01 05:10:44;;;;;;;16.48;7.72;;;;;;;;;;6276185;22;20007;-81
2023/08/01 05:13:10;;;;;;;17.00;7.10;;;;;;;;;;6248822;22;20010;-81
2023/08/01 05:15:35;;;;;;;16.67;7.15;;;;;;;;;;6198735;22;20003;-81
2023/08/01 05:18:00;;;;;;;21.52;6.70;;;;;;;;;;6276137;22;20000;-80
2023/08/01 05:20:30;;;;;;;16.27;6.70;;;;;;;;;;6248632;22;19999;-81
2023/08/01 05:22:57;;;;;;;18.90;6.88;;;;;;;;;;6249023;22;20477;-81
2023/08/01 05:25:22;;;;;;;17.73;7.05;;;;;;;;;;6275929;22;20011;-80
2023/08/01 05:27:48;;;;;;;16.90;6.35;;;;;;;;;;6276075;22;19999;-80
2023/08/01 05:30:13;;;;;;;27.15;7.20;;;;;;;;;;6233515;22;20087;-81
2023/08/01 05:32:40;;;;;;;18.42;7.68;;;;;;;;;;6251499;22;20011;-81
2023/08/01 05:35:06;;;;;;;21.80;6.32;;;;;;;;;;6249128;22;20418;-81
2023/08/01 05:37:31;;;;;;;16.90;6.80;;;;;;;;;;6275851;22;20003;-81
2023/08/01 05:39:57;;;;;;;17.08;6.47;;;;;;;;;;6275512;22;20078;-81
2023/08/01 05:42:22;;;;;;;16.67;6.53;;;;;;;;;;6248114;22;20011;-81
2023/08/01 05:44:48;;;;;;;15.75;5.93;;;;;;;;;;6275909;22;20015;-82
2023/08/01 05:47:13;;;;;;;13.55;5.35;;;;;;;;;;6276007;22;20342;-82
2023/08/01 05:49:39;;;;;;;13.07;5.50;;;;;;;;;;6248517;22;20022;-81
2023/08/01 05:52:04;;;;;;;7.53;4.50;;;;;;;;;;6276775;22;20076;-81
2023/08/01 05:54:30;;;;;;;9.20;4.68;;;;;;;;;;6204983;22;20726;-83
2023/08/01 05:56:55;;;;;;;8.30;4.10;;;;;;;;;;6248563;22;20011;-83
2023/08/01 05:59:21;;;;;;;7.03;4.03;;;;;;;;;;6248795;22;20000;-82
2023/08/01 06:01:46;;;;;;;6.45;3.80;;;;;;;;;;6248285;22;20458;-83
2023/08/01 06:04:12;;;;;;;10.30;3.60;;;;;;;;;;6248744;22;20399;-81
2023/08/01 06:06:37;;;;;;;8.05;3.58;;;;;;;;;;6275649;22;20392;-82
2023/08/01 06:09:03;;;;;;;7.40;3.88;;;;;;;;;;6222718;22;20381;-82
2023/08/01 06:11:28;;;;;;;11.43;3.47;;;;;;;;;;6275709;22;20038;-82
2023/08/01 06:13:53;;;;;;;8.18;3.80;;;;;;;;;;6223325;22;20010;-83
2023/08/01 06:16:19;;;;;;;5.55;3.15;;;;;;;;;;6250906;22;20031;-83
2023/08/01 06:18:44;;;;;;;6.90;3.05;;;;;;;;;;6249392;22;20450;-83
2023/08/01 06:21:10;;;;;;;4.55;2.85;;;;;;;;;;6275684;22;20000;-83
2023/08/01 06:23:35;;;;;;;5.07;2.97;;;;;;;;;;6275168;22;20004;-83
2023/08/01 06:26:01;;;;;;;7.30;2.80;;;;;;;;;;6275489;22;20079;-83
2023/08/01 06:28:26;;;;;;;7.25;3.20;;;;;;;;;;6275376;22;20000;-82
2023/08/01 06:30:51;;;;;;;7.68;3.22;;;;;;;;;;6275166;22;20007;-83
2023/08/01 06:33:17;;;;;;;7.97;2.90;;;;;;;;;;6248174;22;20000;-82
2023/08/01 06:35:42;;;;;;;5.20;2.97;;;;;;;;;;6275346;22;20010;-83
2023/08/01 06:38:08;;;;;;;6.05;2.90;;;;;;;;;;6275610;22;20091;-82
2023/08/01 06:40:33;;;;;;;7.82;3.50;;;;;;;;;;6282541;22;20035;-83
2023/08/01 06:42:58;;;;;;;12.73;3.10;;;;;;;;;;6275620;22;20039;-83
2023/08/01 06:45:24;;;;;;;5.40;3.10;;;;;;;;;;6275368;22;20007;-83
2023/08/01 06:47:49;;;;;;;7.10;2.67;;;;;;;;;;6275732;22;20008;-83
2023/08/01 06:50:15;;;;;;;11.05;3.08;;;;;;;;;;6275248;22;20438;-83
2023/08/01 06:52:40;;;;;;;8.52;2.80;;;;;;;;;;6274751;22;20430;-82
2023/08/01 06:55:06;;;;;;;8.50;3.05;;;;;;;;;;6274801;22;20420;-82
2023/08/01 06:57:31;;;;;;;9.57;3.13;;;;;;;;;;6275357;22;20430;-83
2023/08/01 06:59:57;;;;;;;13.55;3.35;;;;;;;;;;6275576;22;19999;-83
2023/08/01 07:02:22;;;;;;;13.80;3.42;;;;;;;;;;6280646;22;20003;-82
2023/08/01 07:04:48;;;;;;;7.50;3.15;;;;;;;;;;6251498;22;20422;-82
2023/08/01 07:07:13;;;;;;;5.85;2.80;;;;;;;;;;6248155;22;20031;-82
2023/08/01 07:09:39;;;;;;;15.10;3.17;;;;;;;;;;6248543;22;20308;-83
2023/08/01 07:12:05;;;;;;;6.80;3.03;;;;;;;;;;6222542;22;20342;-82
2023/08/01 07:14:30;;;;;;;9.23;3.20;;;;;;;;;;6248347;22;20004;-83
2023/08/01 07:16:55;;;;;;;10.13;3.15;;;;;;;;;;6222573;22;20484;-83
2023/08/01 07:19:21;;;;;;;6.78;2.60;;;;;;;;;;6275225;22;20443;-81
2023/08/01 07:21:48;;;;;;;3.83;2.45;;;;;;;;;;6223052;22;20004;-82
2023/08/01 07:24:14;;;;;;;6.28;3.10;;;;;;;;;;6247733;22;20010;-82
2023/08/01 07:26:40;;;;;;;5.07;2.80;;;;;;;;;;6255775;22;20153;-81
2023/08/01 07:29:08;;;;;;;6.65;3.33;;;;;;;;;;6223164;22;20433;-82
2023/08/01 07:31:33;;;;;;;7.15;3.22;;;;;;;;;;6276136;22;20011;-82
2023/08/01 07:33:59;;;;;;;7.22;2.83;;;;;;;;;;6277232;22;20142;-82
2023/08/01 07:36:24;;;;;;;6.75;3.00;;;;;;;;;;6249889;22;20007;-82
2023/08/01 07:38:50;;;;;;;6.50;2.95;;;;;;;;;;6276975;22;20385;-82
2023/08/01 07:41:15;;;;;;;7.90;3.45;;;;;;;;;;6248721;22;20040;-82
2023/08/01 07:43:41;;;;;;;4.78;2.75;;;;;;;;;;6276824;22;20015;-82
2023/08/01 07:46:08;;;;;;;6.60;3.10;;;;;;;;;;6250305;22;20010;-82
2023/08/01 07:48:34;;;;;;;8.93;3.20;;;;;;;;;;6253289;22;20006;-81
2023/08/01 07:51:00;;;;;;;11.93;3.40;;;;;;;;;;6253833;22;20570;-82
2023/08/01 07:53:25;;;;;;;6.75;3.22;;;;;;;;;;6276628;22;20014;-83
2023/08/01 07:55:52;;;;;;;6.43;3.10;;;;;;;;;;6249650;22;20057;-83
2023/08/01 07:58:17;;;;;;;14.00;3.47;;;;;;;;;;6249899;22;20011;-81
2023/08/01 08:00:43;;;;;;;5.47;3.40;;;;;;;;;;6276757;22;19999;-82
2023/08/01 08:03:08;;;;;;;8.68;3.50;;;;;;;;;;6276976;22;20342;-82
2023/08/01 08:05:38;;;;;;;8.40;3.10;;;;;;;;;;6249512;22;20069;-82
2023/08/01 08:08:04;;;;;;;13.20;3.47;;;;;;;;;;6250736;22;19999;-82
2023/08/01 08:10:29;;;;;;;8.50;3.20;;;;;;;;;;6250164;22;20090;-81
2023/08/01 08:12:55;;;;;;;5.25;3.13;;;;;;;;;;6250595;22;20011;-82
2023/08/01 08:15:20;;;;;;;8.45;2.90;;;;;;;;;;6283500;22;20497;-82
2023/08/01 08:17:45;;;;;;;7.22;2.88;;;;;;;;;;6277073;22;20083;-82
2023/08/01 08:20:11;;;;;;;10.13;3.13;;;;;;;;;;6276738;22;20007;-80
2023/08/01 08:22:36;;;;;;;11.15;3.63;;;;;;;;;;6276789;22;20011;-80
2023/08/01 08:25:02;;;;;;;5.05;2.97;;;;;;;;;;6276735;22;20003;-81
2023/08/01 08:27:27;;;;;;;8.45;3.22;;;;;;;;;;6276668;22;20435;-80
2023/08/01 08:29:53;;;;;;;5.53;3.65;;;;;;;;;;6224262;22;20004;-81
2023/08/01 08:32:18;;;;;;;6.50;3.38;;;;;;;;;;6277079;22;20030;-81
2023/08/01 08:34:44;;;;;;;6.50;3.42;;;;;;;;;;6279774;22;20003;-81
2023/08/01 08:37:09;;;;;;;4.97;3.20;;;;;;;;;;6279580;22;20004;-81
2023/08/01 08:39:34;;;;;;;4.85;3.38;;;;;;;;;;6277009;22;20004;-81
2023/08/01 08:42:00;;;;;;;6.70;3.45;;;;;;;;;;6276476;22;20469;-81
2023/08/01 08:44:28;;;;;;;5.38;3.03;;;;;;;;;;6249087;22;20000;-81
2023/08/01 08:46:53;;;;;;;9.98;3.45;;;;;;;;;;6276419;22;20062;-80
2023/08/01 08:49:20;;;;;;;5.60;3.63;;;;;;;;;;6249654;22;20007;-80
2023/08/01 08:51:46;;;;;;;9.70;3.90;;;;;;;;;;6276335;22;20012;-81
2023/08/01 08:54:11;;;;;;;7.80;3.60;;;;;;;;;;6275967;22;20465;-81
2023/08/01 08:56:37;;;;;;;9.40;3.47;;;;;;;;;;6249523;22;20053;-80
2023/08/01 08:59:03;;;;;;;4.95;3.60;;;;;;;;;;6257757;22;20003;-81
2023/08/01 09:01:31;;;;;;;5.85;4.00;;;;;;;;;;6224762;22;20420;-81
2023/08/01 09:03:57;;;;;;;12.43;3.65;;;;;;;;;;6224396;22;20012;-81
2023/08/01 09:06:29;;;;;;;8.13;4.43;;;;;;;;;;6249626;22;20415;-81
2023/08/01 09:09:09;;;;;;;4.80;4.10;;;;;;;;;;6224545;22;20110;-82
2023/08/01 09:11:41;;;;;;;10.02;3.88;;;;;;;;;;6249253;22;20004;-82
2023/08/01 09:14:06;;;;;;;6.10;4.00;;;;;;;;;;6250652;22;20403;-80
2023/08/01 09:16:33;;;;;;;7.45;4.78;;;;;;;;;;6278668;22;20008;-81
2023/08/01 09:18:58;;;;;;;5.35;4.03;;;;;;;;;;6258652;22;20019;-81
2023/08/01 09:21:24;;;;;;;9.77;4.05;;;;;;;;;;6261272;22;20315;-82
2023/08/01 09:23:49;;;;;;;5.93;4.22;;;;;;;;;;6257491;22;20584;-82
2023/08/01 09:26:15;;;;;;;5.75;4.43;;;;;;;;;;6250090;22;20016;-81
2023/08/01 09:28:41;;;;;;;7.75;4.43;;;;;;;;;;6199457;22;20348;-81
2023/08/01 09:31:06;;;;;;;7.47;4.40;;;;;;;;;;6224009;22;19999;-82
2023/08/01 09:33:41;;;;;;;8.35;4.88;;;;;;;;;;6223867;22;20008;-83
2023/08/01 09:36:09;;;;;;;7.85;4.85;;;;;;;;;;6249803;22;20319;-82
2023/08/01 09:38:35;;;;;;;9.20;4.72;;;;;;;;;;6276226;22;20023;-81
2023/08/01 09:41:01;;;;;;;7.95;4.35;;;;;;;;;;6249748;22;20034;-81
2023/08/01 09:43:34;;;;;;;13.23;5.80;;;;;;;;;;6223544;22;20048;-80
2023/08/01 09:45:59;;;;;;;7.00;5.10;;;;;;;;;;6291833;22;20073;-81
2023/08/01 09:48:25;;;;;;;7.25;5.15;;;;;;;;;;6276337;22;20003;-81
2023/08/01 09:50:51;;;;;;;9.93;4.90;;;;;;;;;;6248861;22;20016;-81
2023/08/01 09:53:16;;;;;;;7.68;5.10;;;;;;;;;;6248983;22;19999;-81
2023/08/01 09:55:42;;;;;;;9.23;5.60;;;;;;;;;;6248565;22;20454;-80
2023/08/01 09:58:07;;;;;;;6.72;5.40;;;;;;;;;;6223421;22;20490;-81
2023/08/01 10:00:33;;;;;;;11.05;5.68;;;;;;;;;;6223063;22;20010;-81
2023/08/01 10:03:02;;;;;;;6.18;5.57;;;;;;;;;;6275341;22;20000;-80
2023/08/01 10:05:31;;;;;;;11.55;5.38;;;;;;;;;;6275344;22;20453;-80
2023/08/01 10:08:00;;;;;;;8.82;5.85;;;;;;;;;;6251436;22;19999;-81
2023/08/01 10:10:26;;;;;;;8.27;5.70;;;;;;;;;;6280178;22;20346;-81
2023/08/01 10:12:52;;;;;;;11.77;5.97;;;;;;;;;;6275646;22;20046;-82
2023/08/01 10:15:17;;;;;;;9.00;6.03;;;;;;;;;;6197756;22;20008;-82
2023/08/01 10:17:44;;;;;;;11.73;6.75;;;;;;;;;;6223159;22;20442;-82
2023/08/01 10:20:10;;;;;;;9.20;6.95;;;;;;;;;;6223705;22;20454;-82
2023/08/01 10:22:35;;;;;;;8.80;6.90;;;;;;;;;;6223545;22;20004;-81
2023/08/01 10:25:01;;;;;;;10.82;7.43;;;;;;;;;;6222072;22;20501;-82
2023/08/01 10:27:26;;;;;;;10.00;7.60;;;;;;;;;;6221550;22;19999;-83
2023/08/01 10:29:58;;;;;;;11.60;7.55;;;;;;;;;;6221391;22;20002;-81
2023/08/01 10:32:32;;;;;;;9.27;7.13;;;;;;;;;;6276958;22;20437;-82
2023/08/01 10:34:57;;;;;;;8.80;7.90;;;;;;;;;;6276257;22;20385;-81
2023/08/01 10:37:23;;;;;;;9.98;7.45;;;;;;;;;;6273677;22;20003;-80
2023/08/01 10:39:56;;;;;;;10.15;7.82;;;;;;;;;;6275177;22;20007;-82
2023/08/01 10:42:22;;;;;;;12.75;7.75;;;;;;;;;;6275385;22;20473;-81
2023/08/01 10:44:47;;;;;;;7.60;6.72;;;;;;;;;;6273004;22;20000;-81
2023/08/01 10:47:13;;;;;;;9.10;6.85;;;;;;;;;;6274784;22;20015;-83
2023/08/01 10:49:40;;;;;;;7.35;6.47;;;;;;;;;;6248064;22;20014;-81
2023/08/01 10:52:18;;;;;;;8.68;6.95;;;;;;;;;;6248464;22;20067;-81
2023/08/01 10:54:44;;;;;;;12.15;6.55;;;;;;;;;;6275550;22;20389;-81
2023/08/01 10:57:10;;;;;;;7.78;6.45;;;;;;;;;;6273621;22;20106;-81
2023/08/01 10:59:35;;;;;;;9.10;6.90;;;;;;;;;;6222300;22;20000;-81
2023/08/01 11:02:01;;;;;;;11.13;7.07;;;;;;;;;;6248647;22;20008;-82
2023/08/01 11:04:27;;;;;;;8.73;6.30;;;;;;;;;;6275261;22;20023;-81
2023/08/01 11:06:55;;;;;;;9.27;6.60;;;;;;;;;;6248535;22;20046;-82
2023/08/01 11:09:22;;;;;;;9.38;7.20;;;;;;;;;;6223257;22;20007;-83
2023/08/01 11:11:52;;;;;;;12.02;6.70;;;;;;;;;;6274796;22;20011;-81
2023/08/01 11:14:22;;;;;;;8.90;6.63;;;;;;;;;;6274915;22;20000;-81
2023/08/01 11:16:48;;;;;;;11.27;7.55;;;;;;;;;;6290516;22;20427;-82
2023/08/01 11:19:23;;;;;;;11.20;6.95;;;;;;;;;;6223510;22;20042;-82
2023/08/01 11:21:49;;;;;;;10.32;7.47;;;;;;;;;;6222803;22;20389;-82
2023/08/01 11:24:16;;;;;;;10.68;7.93;;;;;;;;;;6248457;22;19999;-82
2023/08/01 11:26:48;;;;;;;12.63;8.20;;;;;;;;;;6248048;22;20039;-82
2023/08/01 11:29:14;;;;;;;13.90;8.90;;;;;;;;;;6248327;22;20048;-83
2023/08/01 11:31:41;;;;;;;11.90;8.65;;;;;;;;;;6248208;22;20071;-82
2023/08/01 11:34:08;;;;;;;12.75;8.32;;;;;;;;;;6274734;22;20007;-82
2023/08/01 11:36:33;;;;;;;11.02;8.38;;;;;;;;;;6275103;22;20450;-81
2023/08/01 11:38:59;;;;;;;12.07;9.48;;;;;;;;;;6225603;22;20004;-81
2023/08/01 11:41:28;;;;;;;13.85;9.60;;;;;;;;;;6249985;22;20003;-81
2023/08/01 11:43:54;;;;;;;14.15;10.73;;;;;;;;;;6275150;22;20014;-82
2023/08/01 11:46:20;;;;;;;12.55;10.55;;;;;;;;;;6274864;22;20007;-82
2023/08/01 11:48:52;;;;;;;15.60;10.07;;;;;;;;;;6247789;22;20000;-82
2023/08/01 11:51:17;;;;;;;12.38;10.18;;;;;;;;;;6275004;22;20014;-81
2023/08/01 11:53:43;;;;;;;14.05;10.70;;;;;;;;;;6275266;22;20376;-82
2023/08/01 11:56:08;;;;;;;13.57;10.98;;;;;;;;;;6275085;22;20417;-81
2023/08/01 11:58:35;;;;;;;14.18;11.35;;;;;;;;;;6222177;22;20000;-83
2023/08/01 12:01:11;;;;;;;14.65;11.57;;;;;;;;;;6278947;22;20004;-82
2023/08/01 12:03:44;;;;;;;16.88;13.05;;;;;;;;;;6230816;22;20008;-82
2023/08/01 12:06:11;;;;;;;15.63;11.68;;;;;;;;;;6247729;22;20011;-81
2023/08/01 12:08:37;;;;;;;14.85;11.63;;;;;;;;;;6248839;22;20003;-82
2023/08/01 12:11:02;;;;;;;15.60;12.07;;;;;;;;;;6222537;22;20058;-82
2023/08/01 12:13:28;;;;;;;16.27;11.45;;;;;;;;;;6275005;22;20007;-82
2023/08/01 12:15:56;;;;;;;17.02;12.77;;;;;;;;;;6275149;22;20354;-83
2023/08/01 12:18:25;;;;;;;17.88;12.38;;;;;;;;;;6275372;22;20315;-83
2023/08/01 12:20:51;;;;;;;16.05;12.20;;;;;;;;;;6276526;22;20011;-81
2023/08/01 12:23:17;;;;;;;16.98;12.05;;;;;;;;;;6276665;22;20003;-83
2023/08/01 12:25:42;;;;;;;19.20;11.27;;;;;;;;;;6252822;22;19995;-83
2023/08/01 12:28:07;;;;;;;14.02;11.48;;;;;;;;;;6279216;22;20004;-83
2023/08/01 12:30:33;;;;;;;16.42;12.15;;;;;;;;;;6277397;22;20373;-83
2023/08/01 12:32:59;;;;;;;16.58;11.23;;;;;;;;;;6282006;22;20411;-82
2023/08/01 12:35:25;;;;;;;15.82;10.90;;;;;;;;;;6281181;22;20078;-81
2023/08/01 12:37:52;;;;;;;14.73;11.30;;;;;;;;;;6227939;22;20061;-82
2023/08/01 12:40:17;;;;;;;16.25;11.48;;;;;;;;;;6280578;22;20438;-82
2023/08/01 12:42:42;;;;;;;14.85;12.35;;;;;;;;;;6263916;22;20000;-82
2023/08/01 12:45:08;;;;;;;15.18;11.50;;;;;;;;;;6277845;22;20059;-82
2023/08/01 12:47:34;;;;;;;16.77;11.52;;;;;;;;;;6272864;22;20011;-81
2023/08/01 12:49:59;;;;;;;17.88;10.93;;;;;;;;;;6273302;22;19992;-82
2023/08/01 12:52:25;;;;;;;14.43;11.25;;;;;;;;;;6260136;22;20007;-80
2023/08/01 12:54:50;;;;;;;13.63;10.75;;;;;;;;;;6233811;22;20061;-83
2023/08/01 12:57:16;;;;;;;14.25;10.50;;;;;;;;;;6298495;22;20071;-82
2023/08/01 12:59:41;;;;;;;17.27;11.25;;;;;;;;;;6278790;22;20341;-83
2023/08/01 13:02:08;;;;;;;16.02;10.85;;;;;;;;;;6276592;22;20015;-82
2023/08/01 13:04:34;;;;;;;16.83;10.60;;;;;;;;;;6276138;22;20003;-82
2023/08/01 13:06:59;;;;;;;15.40;10.25;;;;;;;;;;6249459;22;20000;-82
2023/08/01 13:09:25;;;;;;;13.63;10.98;;;;;;;;;;6249093;22;20000;-81
2023/08/01 13:11:50;;;;;;;15.82;10.90;;;;;;;;;;6201451;22;20514;-83
2023/08/01 13:14:16;;;;;;;18.65;10.57;;;;;;;;;;6278874;22;20422;-82
2023/08/01 13:16:41;;;;;;;17.10;10.25;;;;;;;;;;6276388;22;20384;-81
2023/08/01 13:19:07;;;;;;;13.50;10.18;;;;;;;;;;6249996;22;20004;-82
2023/08/01 13:21:34;;;;;;;14.57;10.98;;;;;;;;;;6249398;22;20000;-81
2023/08/01 13:24:04;;;;;;;17.05;10.40;;;;;;;;;;6276059;22;20003;-80
2023/08/01 13:26:29;;;;;;;11.32;9.70;;;;;;;;;;6250267;22;19999;-81
2023/08/01 13:28:55;;;;;;;15.32;10.85;;;;;;;;;;6276138;22;20651;-81
2023/08/01 13:31:20;;;;;;;17.45;11.25;;;;;;;;;;6248565;22;20000;-80
2023/08/01 13:33:45;;;;;;;12.48;10.13;;;;;;;;;;6276153;22;20008;-81
2023/08/01 13:36:11;;;;;;;15.63;11.35;;;;;;;;;;6280063;22;20082;-83
2023/08/01 13:38:36;;;;;;;13.38;10.27;;;;;;;;;;6223833;22;20011;-81
2023/08/01 13:41:02;;;;;;;13.60;9.73;;;;;;;;;;6275855;22;20067;-81
2023/08/01 13:43:27;;;;;;;14.40;10.85;;;;;;;;;;6275789;22;20427;-81
2023/08/01 13:45:53;;;;;;;18.85;10.52;;;;;;;;;;6249056;22;20391;-82
2023/08/01 13:48:19;;;;;;;13.75;10.80;;;;;;;;;;6223958;22;20303;-82
2023/08/01 13:50:44;;;;;;;15.15;11.25;;;;;;;;;;6275663;22;20011;-82
2023/08/01 13:53:13;;;;;;;16.65;11.13;;;;;;;;;;6275639;22;20016;-82
2023/08/01 13:55:39;;;;;;;17.40;11.55;;;;;;;;;;6249542;22;20535;-82
2023/08/01 13:58:04;;;;;;;15.70;11.25;;;;;;;;;;6282189;22;19999;-82
2023/08/01 14:00:30;;;;;;;15.77;11.25;;;;;;;;;;6280314;22;20025;-81
2023/08/01 14:02:57;;;;;;;14.57;10.65;;;;;;;;;;6223145;22;20149;-82
2023/08/01 14:05:25;;;;;;;17.23;10.40;;;;;;;;;;6275787;22;20004;-82
2023/08/01 14:07:50;;;;;;;14.23;10.30;;;;;;;;;;6247987;22;20047;-82
2023/08/01 14:10:16;;;;;;;14.55;11.02;;;;;;;;;;6275681;22;20000;-82
2023/08/01 14:12:41;;;;;;;15.18;11.10;;;;;;;;;;6275648;22;20003;-81
2023/08/01 14:15:07;;;;;;;14.15;10.40;;;;;;;;;;6275450;22;20008;-82
2023/08/01 14:17:33;;;;;;;12.18;10.05;;;;;;;;;;6275163;22;20393;-83
2023/08/01 14:19:58;;;;;;;14.38;10.70;;;;;;;;;;6280379;22;20003;-83
2023/08/01 14:22:24;;;;;;;16.15;10.15;;;;;;;;;;6248011;22;20026;-82
2023/08/01 14:24:49;;;;;;;11.52;9.68;;;;;;;;;;6275247;22;20000;-82